Time;durP1;ratioP1;P1;durP2;ratioP2;P2;SDS_P1;SDS_P2;PMS_P1;PMS_P2;Temp;Humidity;BMP_temperature;BMP_pressure;BME280_temperature;BME280_humidity;BME280_pressure;Samples;Min_cycle;Max_cycle;Signal;HPM_P1;HPM_P2
2022/03/28 00:02:06;;;;;;;161.75;16.20;;;7.90;93.90;;;;;;5019783;27;111567;-71
2022/03/28 00:04:33;;;;;;;53.60;12.75;;;7.90;93.90;;;;;;5055816;27;92318;-69
2022/03/28 00:07:00;;;;;;;66.47;13.35;;;8.00;93.90;;;;;;5055632;27;92383;-69
2022/03/28 00:09:26;;;;;;;87.00;13.80;;;8.00;93.80;;;;;;5037511;27;93586;-69
2022/03/28 00:11:53;;;;;;;63.58;13.90;;;8.00;93.70;;;;;;5037480;27;93172;-69
2022/03/28 00:14:20;;;;;;;148.68;18.42;;;8.00;93.60;;;;;;5055647;27;92610;-69
2022/03/28 00:16:48;;;;;;;78.05;15.23;;;8.10;93.60;;;;;;5055752;27;91697;-69
2022/03/28 00:19:15;;;;;;;78.88;16.65;;;8.10;93.50;;;;;;5055382;27;93104;-69
2022/03/28 00:21:42;;;;;;;42.20;13.45;;;8.10;93.50;;;;;;5055204;27;93004;-69
2022/03/28 00:24:09;;;;;;;38.95;13.00;;;8.10;93.40;;;;;;5018442;27;94947;-69
2022/03/28 00:26:36;;;;;;;44.85;13.27;;;8.10;93.40;;;;;;5054970;27;108554;-69
2022/03/28 00:29:03;;;;;;;77.70;14.65;;;8.10;93.40;;;;;;5055224;27;93142;-69
2022/03/28 00:31:30;;;;;;;53.78;14.98;;;8.10;93.50;;;;;;5037082;27;95404;-69
2022/03/28 00:33:57;;;;;;;26.25;14.07;;;8.10;93.50;;;;;;5019983;27;92568;-69
2022/03/28 00:36:24;;;;;;;35.25;13.88;;;8.10;93.40;;;;;;5037276;27;92518;-69
2022/03/28 00:38:51;;;;;;;23.63;12.30;;;8.20;93.40;;;;;;5020024;27;95744;-71
2022/03/28 00:41:20;;;;;;;55.03;14.75;;;8.10;93.30;;;;;;5037080;27;95550;-71
2022/03/28 00:43:58;;;;;;;27.50;11.23;;;8.10;93.40;;;;;;5055419;27;92339;-71
2022/03/28 00:46:26;;;;;;;33.92;11.85;;;8.10;93.30;;;;;;5037206;27;92471;-71
2022/03/28 00:48:54;;;;;;;28.75;11.65;;;8.10;93.20;;;;;;5018456;27;98067;-71
2022/03/28 00:51:22;;;;;;;66.05;11.90;;;8.00;93.10;;;;;;5055136;27;95407;-71
2022/03/28 00:53:50;;;;;;;41.53;12.77;;;8.00;93.20;;;;;;5054937;27;95375;-71
2022/03/28 00:56:18;;;;;;;37.30;11.73;;;8.00;93.20;;;;;;5055300;27;92516;-71
2022/03/28 00:58:46;;;;;;;38.08;13.05;;;7.90;93.20;;;;;;5036370;27;94313;-71
2022/03/28 01:01:14;;;;;;;155.25;18.20;;;7.90;93.30;;;;;;5054721;27;93093;-71
2022/03/28 01:03:42;;;;;;;58.03;14.10;;;8.00;93.30;;;;;;5037043;27;92572;-71
2022/03/28 01:06:09;;;;;;;26.23;13.13;;;8.00;93.10;;;;;;5037220;27;91700;-71
2022/03/28 01:08:36;;;;;;;37.08;14.68;;;8.00;93.20;;;;;;5037002;27;93049;-69
2022/03/28 01:11:06;;;;;;;46.80;13.73;;;8.00;93.20;;;;;;5054596;27;92735;-69
2022/03/28 01:13:35;;;;;;;72.95;15.25;;;8.10;93.10;;;;;;5053735;27;94739;-69
2022/03/28 01:16:03;;;;;;;27.77;13.93;;;8.10;93.00;;;;;;5036073;27;92506;-70
2022/03/28 01:18:31;;;;;;;103.10;17.58;;;8.10;93.00;;;;;;5054826;27;93152;-69
2022/03/28 01:21:00;;;;;;;78.25;15.27;;;8.10;93.00;;;;;;5036443;27;93061;-69
2022/03/28 01:23:27;;;;;;;46.42;14.23;;;8.10;93.00;;;;;;5054129;27;92378;-69
2022/03/28 01:25:56;;;;;;;89.47;17.13;;;8.10;92.90;;;;;;5003187;27;93081;-69
2022/03/28 01:28:27;;;;;;;58.03;15.18;;;8.10;92.90;;;;;;5019604;27;93642;-69
2022/03/28 01:30:54;;;;;;;64.50;16.35;;;8.20;92.90;;;;;;5036376;27;95854;-69
2022/03/28 01:33:22;;;;;;;148.45;21.08;;;8.20;92.90;;;;;;5055081;27;92422;-69
2022/03/28 01:35:49;;;;;;;81.50;18.08;;;8.30;92.90;;;;;;5040169;27;92968;-69
2022/03/28 01:38:19;;;;;;;34.30;14.00;;;8.30;92.70;;;;;;5056516;27;95642;-69
2022/03/28 01:40:48;;;;;;;84.53;17.13;;;8.20;92.60;;;;;;5023053;27;98150;-70
2022/03/28 01:43:16;;;;;;;67.82;16.92;;;8.30;92.80;;;;;;5039270;27;92460;-69
2022/03/28 01:45:44;;;;;;;36.22;13.65;;;8.20;92.70;;;;;;5039782;27;92572;-69
2022/03/28 01:48:11;;;;;;;32.85;12.85;;;8.20;92.80;;;;;;5057566;27;93078;-69
2022/03/28 01:50:39;;;;;;;25.58;12.48;;;8.10;93.20;;;;;;5057880;27;93072;-69
2022/03/28 01:53:07;;;;;;;24.98;12.95;;;8.10;92.90;;;;;;5057717;27;92347;-69
2022/03/28 01:55:33;;;;;;;26.02;13.65;;;8.10;92.90;;;;;;5058283;27;91682;-69
2022/03/28 01:58:00;;;;;;;31.35;14.23;;;8.10;92.90;;;;;;5038947;27;95810;-69
2022/03/28 02:00:32;;;;;;;125.05;18.27;;;8.20;93.00;;;;;;5057789;27;93046;-69
2022/03/28 02:03:00;;;;;;;122.82;16.65;;;8.20;92.90;;;;;;5038095;27;94900;-69
2022/03/28 02:05:27;;;;;;;81.32;17.48;;;8.20;93.00;;;;;;5057611;27;92431;-69
2022/03/28 02:07:54;;;;;;;57.63;15.02;;;8.20;93.00;;;;;;5057162;27;103822;-69
2022/03/28 02:10:22;;;;;;;33.85;14.95;;;8.30;93.10;;;;;;5039156;27;93031;-69
2022/03/28 02:12:51;;;;;;;88.78;15.95;;;8.30;93.10;;;;;;5039532;27;92459;-69
2022/03/28 02:15:19;;;;;;;108.65;18.50;;;8.20;93.10;;;;;;5057382;27;92443;-71
2022/03/28 02:17:46;;;;;;;28.42;13.55;;;8.20;93.00;;;;;;5022167;27;95681;-69
2022/03/28 02:20:14;;;;;;;31.33;13.05;;;8.20;93.00;;;;;;5039225;27;93002;-69
2022/03/28 02:22:42;;;;;;;19.00;11.40;;;8.20;92.90;;;;;;5056908;27;92566;-69
2022/03/28 02:25:11;;;;;;;23.73;10.98;;;8.20;92.80;;;;;;5039191;27;92847;-69
2022/03/28 02:27:38;;;;;;;20.63;11.50;;;8.10;92.80;;;;;;5055988;27;95712;-71
2022/03/28 02:30:07;;;;;;;28.85;12.02;;;8.10;93.00;;;;;;5056984;27;95258;-71
2022/03/28 02:32:35;;;;;;;40.83;13.55;;;8.10;93.00;;;;;;5038983;27;92444;-72
2022/03/28 02:35:04;;;;;;;26.08;12.07;;;8.00;93.00;;;;;;5057243;27;92442;-71
2022/03/28 02:37:31;;;;;;;24.58;11.95;;;8.10;93.10;;;;;;5038740;27;92619;-71
2022/03/28 02:39:58;;;;;;;25.15;12.07;;;8.10;93.00;;;;;;5057031;27;93115;-71
2022/03/28 02:42:25;;;;;;;22.00;11.60;;;8.10;92.90;;;;;;5038676;27;92647;-71
2022/03/28 02:44:53;;;;;;;24.85;12.27;;;8.20;92.80;;;;;;5038635;27;91827;-71
2022/03/28 02:47:20;;;;;;;23.95;12.85;;;8.10;92.60;;;;;;5021345;27;95948;-71
2022/03/28 02:49:48;;;;;;;21.27;12.88;;;8.10;92.70;;;;;;5038932;27;93188;-71
2022/03/28 02:52:15;;;;;;;48.17;14.70;;;8.10;92.80;;;;;;5055580;27;94848;-71
2022/03/28 02:54:42;;;;;;;22.77;13.38;;;8.10;92.60;;;;;;5038534;27;92489;-69
2022/03/28 02:57:09;;;;;;;23.63;13.40;;;8.10;92.70;;;;;;5038369;27;92874;-69
2022/03/28 02:59:36;;;;;;;17.60;12.32;;;8.20;92.60;;;;;;5021935;27;92976;-69
2022/03/28 03:02:04;;;;;;;26.52;13.63;;;8.20;92.60;;;;;;5038691;27;94863;-69
2022/03/28 03:04:31;;;;;;;32.75;14.35;;;8.10;92.60;;;;;;5038095;27;92585;-69
2022/03/28 03:06:59;;;;;;;21.92;13.35;;;8.20;92.60;;;;;;5056602;27;93237;-68
2022/03/28 03:09:26;;;;;;;28.58;14.95;;;8.10;92.60;;;;;;5038744;27;93122;-69
2022/03/28 03:11:53;;;;;;;23.15;13.05;;;8.10;92.60;;;;;;5056642;27;92442;-69
2022/03/28 03:14:20;;;;;;;24.60;14.02;;;8.10;92.60;;;;;;5056545;27;92451;-69
2022/03/28 03:16:47;;;;;;;22.92;14.45;;;8.00;92.60;;;;;;5036826;27;98322;-69
2022/03/28 03:19:15;;;;;;;21.45;13.25;;;8.00;92.70;;;;;;5056118;27;95625;-69
2022/03/28 03:21:42;;;;;;;18.90;13.77;;;8.00;92.60;;;;;;5038135;27;92916;-69
2022/03/28 03:24:09;;;;;;;21.38;13.02;;;8.00;92.60;;;;;;5021077;27;93217;-69
2022/03/28 03:26:37;;;;;;;17.70;11.60;;;8.00;92.50;;;;;;5037876;27;93179;-69
2022/03/28 03:29:04;;;;;;;17.00;11.30;;;8.00;92.50;;;;;;5055839;27;104352;-69
2022/03/28 03:31:31;;;;;;;17.15;11.68;;;8.00;92.40;;;;;;5037694;27;92534;-69
2022/03/28 03:33:59;;;;;;;16.42;11.10;;;7.90;92.30;;;;;;5056704;27;91709;-71
2022/03/28 03:36:26;;;;;;;17.13;11.25;;;7.90;92.30;;;;;;5055941;27;93325;-71
2022/03/28 03:38:54;;;;;;;19.65;11.30;;;7.90;92.40;;;;;;5056295;27;93083;-71
2022/03/28 03:41:21;;;;;;;15.70;11.80;;;7.90;92.30;;;;;;5036605;27;94935;-71
2022/03/28 03:43:48;;;;;;;14.70;10.35;;;7.90;92.20;;;;;;5037767;27;92595;-71
2022/03/28 03:46:15;;;;;;;16.38;10.73;;;7.80;92.10;;;;;;5056138;27;93310;-71
2022/03/28 03:48:42;;;;;;;13.25;9.38;;;7.90;92.20;;;;;;5037623;27;95584;-71
2022/03/28 03:51:09;;;;;;;13.77;10.05;;;7.80;92.00;;;;;;5021960;27;92553;-71
2022/03/28 03:53:36;;;;;;;12.80;9.95;;;7.70;92.10;;;;;;5021301;27;92569;-71
2022/03/28 03:56:03;;;;;;;14.48;10.23;;;7.70;92.00;;;;;;5056108;27;98208;-71
2022/03/28 03:58:30;;;;;;;12.65;10.40;;;7.70;92.00;;;;;;5054679;27;93069;-71
2022/03/28 04:00:57;;;;;;;13.00;9.38;;;7.80;92.00;;;;;;5038080;27;92381;-71
2022/03/28 04:03:24;;;;;;;12.00;9.48;;;7.70;91.80;;;;;;5056462;27;92987;-71
2022/03/28 04:05:51;;;;;;;14.65;10.02;;;7.70;91.80;;;;;;5055144;27;95621;-71
2022/03/28 04:08:19;;;;;;;15.38;10.80;;;7.70;91.80;;;;;;5055508;27;95242;-71
2022/03/28 04:10:46;;;;;;;20.30;11.10;;;7.70;91.70;;;;;;5055716;27;92445;-71
2022/03/28 04:13:14;;;;;;;14.35;9.38;;;7.70;91.70;;;;;;5037565;27;93515;-71
2022/03/28 04:15:43;;;;;;;16.42;10.80;;;7.70;91.50;;;;;;5037839;27;93194;-71
2022/03/28 04:18:10;;;;;;;12.63;9.63;;;7.70;91.70;;;;;;5036981;27;93063;-71
2022/03/28 04:20:37;;;;;;;12.70;9.88;;;7.70;91.80;;;;;;5055982;27;92352;-71
2022/03/28 04:23:04;;;;;;;13.52;9.45;;;7.70;91.90;;;;;;5037659;27;91733;-71
2022/03/28 04:25:31;;;;;;;13.43;10.00;;;7.70;91.80;;;;;;5004103;27;96168;-71
2022/03/28 04:27:59;;;;;;;15.00;10.48;;;7.80;91.80;;;;;;5055496;27;93116;-71
2022/03/28 04:30:26;;;;;;;17.42;11.13;;;7.70;91.90;;;;;;5035583;27;94940;-71
2022/03/28 04:32:53;;;;;;;15.50;10.23;;;7.70;91.90;;;;;;5055420;27;92420;-71
2022/03/28 04:35:20;;;;;;;15.18;11.20;;;7.60;91.90;;;;;;5036617;27;95637;-71
2022/03/28 04:37:47;;;;;;;17.27;10.63;;;7.70;91.90;;;;;;5019587;27;95856;-71
2022/03/28 04:40:16;;;;;;;16.00;10.70;;;7.80;91.80;;;;;;5055439;27;92355;-71
2022/03/28 04:42:45;;;;;;;17.58;10.13;;;7.80;91.80;;;;;;5036656;27;92475;-71
2022/03/28 04:45:13;;;;;;;14.98;9.27;;;7.70;91.90;;;;;;5020103;27;94217;-71
2022/03/28 04:47:40;;;;;;;15.43;10.23;;;7.70;91.90;;;;;;5037328;27;95735;-71
2022/03/28 04:50:08;;;;;;;13.38;8.77;;;7.70;92.00;;;;;;5054676;27;102571;-71
2022/03/28 04:52:35;;;;;;;14.85;9.90;;;7.60;92.10;;;;;;5055622;27;92479;-71
2022/03/28 04:55:04;;;;;;;18.13;10.18;;;7.60;92.10;;;;;;5054217;27;95498;-71
2022/03/28 04:57:32;;;;;;;14.93;10.60;;;7.60;92.20;;;;;;5054818;27;95449;-71
2022/03/28 04:59:59;;;;;;;17.42;10.35;;;7.60;92.20;;;;;;5055051;27;92496;-71
2022/03/28 05:02:26;;;;;;;16.40;10.25;;;7.60;92.30;;;;;;5036625;27;93862;-71
2022/03/28 05:04:53;;;;;;;16.25;10.20;;;7.60;92.40;;;;;;5054768;27;93294;-71
2022/03/28 05:07:24;;;;;;;19.23;11.07;;;7.60;92.40;;;;;;5055013;27;92980;-71
2022/03/28 05:09:53;;;;;;;18.90;10.75;;;7.60;92.50;;;;;;5057446;27;92487;-71
2022/03/28 05:12:20;;;;;;;19.70;12.55;;;7.60;92.50;;;;;;5040398;27;98320;-71
2022/03/28 05:14:48;;;;;;;20.38;11.07;;;7.60;92.50;;;;;;5040155;27;93284;-71
2022/03/28 05:17:15;;;;;;;18.88;10.32;;;7.60;92.40;;;;;;5039299;27;100303;-71
2022/03/28 05:19:43;;;;;;;19.33;11.85;;;7.50;92.50;;;;;;5057098;27;94859;-70
2022/03/28 05:22:10;;;;;;;18.55;11.65;;;7.60;92.50;;;;;;5058529;27;92415;-71
2022/03/28 05:24:37;;;;;;;19.25;11.57;;;7.60;92.60;;;;;;5057560;27;92986;-71
2022/03/28 05:27:04;;;;;;;16.05;10.15;;;7.60;92.70;;;;;;5058172;27;93139;-72
2022/03/28 05:29:31;;;;;;;18.52;10.27;;;7.60;92.60;;;;;;5039991;27;92824;-71
2022/03/28 05:31:58;;;;;;;19.65;11.68;;;7.50;92.60;;;;;;5058190;27;92435;-71
2022/03/28 05:34:25;;;;;;;16.95;10.50;;;7.60;92.60;;;;;;5039559;27;94283;-71
2022/03/28 05:36:52;;;;;;;18.45;9.93;;;7.60;92.70;;;;;;5039505;27;106093;-71
2022/03/28 05:39:20;;;;;;;19.10;9.48;;;7.60;92.70;;;;;;5058945;27;92499;-71
2022/03/28 05:41:47;;;;;;;24.73;10.00;;;7.60;92.80;;;;;;5040378;27;92461;-71
2022/03/28 05:44:14;;;;;;;19.02;10.15;;;7.60;92.70;;;;;;5038328;27;95563;-71
2022/03/28 05:46:41;;;;;;;17.35;8.63;;;7.60;92.70;;;;;;5057318;27;96094;-71
2022/03/28 05:49:08;;;;;;;22.48;10.23;;;7.60;92.80;;;;;;5040564;27;92360;-71
2022/03/28 05:51:35;;;;;;;16.45;9.85;;;7.50;92.80;;;;;;5057849;27;92427;-71
2022/03/28 05:54:02;;;;;;;16.73;8.45;;;7.50;92.80;;;;;;5040178;27;92555;-71
2022/03/28 05:56:28;;;;;;;17.48;9.02;;;7.60;92.90;;;;;;5040349;27;92507;-71
2022/03/28 05:58:55;;;;;;;15.27;8.95;;;7.60;92.90;;;;;;5039811;27;92754;-71
2022/03/28 06:01:23;;;;;;;17.00;8.32;;;7.60;92.90;;;;;;5040174;27;91743;-71
2022/03/28 06:03:50;;;;;;;17.20;7.97;;;7.60;92.90;;;;;;5057967;27;93024;-71
2022/03/28 06:06:17;;;;;;;16.70;7.55;;;7.60;93.00;;;;;;5039787;27;95633;-71
2022/03/28 06:08:44;;;;;;;12.55;6.22;;;7.60;92.90;;;;;;5037743;27;105104;-71
2022/03/28 06:11:11;;;;;;;14.57;6.72;;;7.50;92.70;;;;;;5040222;27;92459;-71
2022/03/28 06:13:38;;;;;;;11.73;5.97;;;7.50;92.90;;;;;;5057646;27;93215;-71
2022/03/28 06:16:05;;;;;;;12.55;6.72;;;7.50;92.80;;;;;;5057861;27;93096;-71
2022/03/28 06:18:32;;;;;;;14.48;7.30;;;7.60;92.90;;;;;;5039716;27;92646;-71
2022/03/28 06:20:59;;;;;;;14.85;6.45;;;7.60;92.90;;;;;;5038821;27;93169;-71
2022/03/28 06:23:26;;;;;;;13.35;7.57;;;7.60;92.80;;;;;;5039254;27;93232;-71
2022/03/28 06:25:53;;;;;;;11.10;6.85;;;7.60;92.80;;;;;;5057649;27;93070;-71
2022/03/28 06:28:20;;;;;;;9.45;5.80;;;7.60;92.70;;;;;;5057975;27;92573;-71
2022/03/28 06:30:47;;;;;;;10.20;7.00;;;7.60;92.50;;;;;;5057697;27;92700;-71
2022/03/28 06:33:14;;;;;;;13.20;6.75;;;7.60;92.30;;;;;;5038484;27;95685;-71
2022/03/28 06:35:41;;;;;;;10.85;6.20;;;7.60;92.40;;;;;;5038961;27;98099;-71
2022/03/28 06:38:09;;;;;;;11.57;6.43;;;7.70;92.40;;;;;;5039333;27;92433;-71
2022/03/28 06:40:36;;;;;;;9.75;5.88;;;7.70;92.20;;;;;;5057671;27;92411;-71
2022/03/28 06:43:04;;;;;;;8.88;5.00;;;7.70;91.80;;;;;;5039237;27;93230;-71
2022/03/28 06:45:32;;;;;;;9.23;4.60;;;7.80;91.80;;;;;;5057447;27;92932;-71
2022/03/28 06:47:59;;;;;;;6.95;4.07;;;7.70;91.40;;;;;;5057358;27;92377;-71
2022/03/28 06:50:46;;;;;;;7.30;4.43;;;7.80;91.10;;;;;;5025349;27;91722;-71
2022/03/28 06:53:13;;;;;;;6.07;4.50;;;7.70;91.10;;;;;;5038861;27;95857;-71
2022/03/28 06:55:40;;;;;;;7.00;4.18;;;7.70;91.40;;;;;;5039152;27;93006;-71
2022/03/28 06:58:07;;;;;;;7.40;4.70;;;7.70;91.30;;;;;;5056113;27;94863;-71
2022/03/28 07:00:35;;;;;;;8.77;5.43;;;7.80;91.40;;;;;;5057630;27;92873;-71
2022/03/28 07:03:02;;;;;;;7.70;4.40;;;7.70;91.50;;;;;;5038544;27;101641;-71
2022/03/28 07:05:29;;;;;;;7.93;5.07;;;7.80;91.60;;;;;;5057400;27;92483;-71
2022/03/28 07:07:56;;;;;;;11.13;6.40;;;7.80;91.50;;;;;;5057369;27;92813;-71
2022/03/28 07:10:23;;;;;;;10.98;6.18;;;7.90;91.60;;;;;;5057354;27;92552;-71
2022/03/28 07:12:54;;;;;;;12.43;6.60;;;8.00;91.90;;;;;;5056884;27;92441;-71
2022/03/28 07:15:21;;;;;;;12.63;6.75;;;8.00;91.60;;;;;;5039103;27;95895;-71
2022/03/28 07:17:57;;;;;;;12.18;6.57;;;8.10;91.60;;;;;;5057005;27;92460;-71
2022/03/28 07:20:30;;;;;;;12.80;6.47;;;8.10;91.40;;;;;;5038792;27;92518;-71
2022/03/28 07:22:58;;;;;;;11.18;5.40;;;8.20;91.30;;;;;;5055069;27;95673;-71
2022/03/28 07:25:26;;;;;;;10.13;6.05;;;8.20;91.10;;;;;;5057109;27;95441;-71
2022/03/28 07:27:53;;;;;;;8.50;5.18;;;8.10;91.10;;;;;;5038851;27;92941;-71
2022/03/28 07:30:21;;;;;;;10.10;5.45;;;8.20;91.10;;;;;;5038911;27;92622;-71
2022/03/28 07:32:50;;;;;;;7.47;4.55;;;8.20;91.00;;;;;;5038055;27;95915;-71
2022/03/28 07:35:20;;;;;;;7.63;5.40;;;8.20;90.60;;;;;;5056642;27;93090;-71
2022/03/28 07:37:47;;;;;;;9.57;5.13;;;8.30;90.70;;;;;;5056502;27;94128;-72
2022/03/28 07:40:15;;;;;;;9.80;5.55;;;8.30;90.70;;;;;;5038765;27;91717;-71
2022/03/28 07:42:43;;;;;;;9.55;5.50;;;8.40;90.30;;;;;;5038229;27;95857;-71
2022/03/28 07:45:10;;;;;;;10.50;5.47;;;8.40;90.30;;;;;;5056192;27;93092;-71
2022/03/28 07:47:38;;;;;;;9.25;5.22;;;8.50;90.00;;;;;;5036931;27;95003;-71
2022/03/28 07:50:06;;;;;;;7.75;5.22;;;8.40;89.80;;;;;;5038440;27;92454;-71
2022/03/28 07:52:34;;;;;;;9.23;6.30;;;8.50;90.00;;;;;;5056383;27;93181;-71
2022/03/28 07:55:01;;;;;;;8.73;5.10;;;8.60;89.50;;;;;;5038240;27;92989;-71
2022/03/28 07:57:28;;;;;;;7.47;5.03;;;8.80;89.60;;;;;;5056481;27;92403;-71
2022/03/28 07:59:55;;;;;;;9.02;5.35;;;8.90;88.80;;;;;;5038072;27;92825;-71
2022/03/28 08:02:43;;;;;;;8.25;5.25;;;9.00;87.40;;;;;;5054615;27;93124;-71
2022/03/28 08:05:10;;;;;;;8.65;5.15;;;9.00;87.00;;;;;;5038265;27;93011;-71
2022/03/28 08:07:38;;;;;;;7.13;5.07;;;9.10;86.60;;;;;;5056423;27;92398;-71
2022/03/28 08:10:06;;;;;;;6.70;4.35;;;9.10;86.40;;;;;;5055355;27;103700;-71
2022/03/28 08:12:36;;;;;;;5.85;4.47;;;9.10;86.60;;;;;;5019790;27;98104;-71
2022/03/28 08:15:08;;;;;;;7.00;4.80;;;9.20;86.40;;;;;;5037434;27;97886;-71
2022/03/28 08:17:39;;;;;;;7.78;4.95;;;9.20;85.60;;;;;;5037716;27;92550;-72
2022/03/28 08:20:09;;;;;;;8.30;5.60;;;9.10;85.80;;;;;;5056035;27;92435;-72
2022/03/28 08:22:40;;;;;;;7.72;4.53;;;8.90;86.70;;;;;;5055931;27;93298;-71
2022/03/28 08:25:10;;;;;;;7.93;4.70;;;8.90;86.80;;;;;;5055864;27;94098;-72
2022/03/28 08:27:37;;;;;;;7.80;5.53;;;8.90;87.30;;;;;;5037859;27;92385;-71
2022/03/28 08:30:04;;;;;;;10.63;6.28;;;8.90;87.50;;;;;;5056421;27;91654;-72
2022/03/28 08:32:33;;;;;;;8.48;5.97;;;8.90;87.60;;;;;;5055848;27;93322;-71
2022/03/28 08:35:00;;;;;;;8.52;5.53;;;8.90;87.50;;;;;;5055467;27;93046;-72
2022/03/28 08:37:27;;;;;;;9.23;6.18;;;9.00;87.60;;;;;;5054886;27;94771;-71
2022/03/28 08:39:55;;;;;;;7.82;5.13;;;9.10;87.20;;;;;;5036946;27;101914;-71
2022/03/28 08:42:23;;;;;;;10.68;6.47;;;9.00;86.90;;;;;;5037188;27;95466;-71
2022/03/28 08:44:50;;;;;;;9.57;6.22;;;9.00;87.80;;;;;;5036584;27;95788;-71
2022/03/28 08:47:19;;;;;;;11.35;7.38;;;9.20;87.60;;;;;;5055803;27;92421;-71
2022/03/28 08:49:52;;;;;;;9.27;7.18;;;9.30;86.90;;;;;;5055599;27;92532;-71
2022/03/28 08:52:20;;;;;;;10.33;6.27;;;9.40;86.50;;;;;;5037216;27;95705;-71
2022/03/28 08:54:48;;;;;;;10.35;7.00;;;9.50;86.10;;;;;;5020904;27;95590;-72
2022/03/28 08:57:16;;;;;;;8.98;6.18;;;9.60;85.80;;;;;;5055585;27;92565;-71
2022/03/28 08:59:43;;;;;;;8.85;5.95;;;9.70;85.30;;;;;;5020574;27;92531;-72
2022/03/28 09:02:41;;;;;;;9.98;6.00;;;9.90;85.10;;;;;;5035986;27;95194;-72
2022/03/28 09:05:10;;;;;;;9.60;6.45;;;9.80;84.80;;;;;;5055296;27;95498;-72
2022/03/28 09:07:38;;;;;;;10.23;7.07;;;9.80;84.80;;;;;;5055686;27;92949;-72
2022/03/28 09:10:17;;;;;;;9.27;6.40;;;9.90;84.50;;;;;;5055405;27;92796;-72
2022/03/28 09:12:58;;;;;;;10.63;6.45;;;10.00;84.20;;;;;;5037490;27;93128;-72
2022/03/28 09:15:26;;;;;;;7.75;5.45;;;10.10;83.60;;;;;;5055438;27;93152;-71
2022/03/28 09:17:58;;;;;;;6.88;5.25;;;10.00;83.90;;;;;;5055377;27;92551;-72
2022/03/28 09:20:25;;;;;;;7.47;5.13;;;10.20;83.30;;;;;;5055723;27;91714;-72
2022/03/28 09:22:52;;;;;;;8.15;5.22;;;10.30;83.20;;;;;;5054600;27;93240;-72
2022/03/28 09:25:21;;;;;;;6.85;4.88;;;10.30;82.10;;;;;;5020116;27;95666;-72
2022/03/28 09:27:49;;;;;;;6.78;4.80;;;10.30;82.40;;;;;;5036112;27;94823;-72
2022/03/28 09:30:20;;;;;;;6.55;4.75;;;10.40;82.50;;;;;;5020029;27;92480;-72
2022/03/28 09:32:52;;;;;;;7.28;5.30;;;10.50;82.10;;;;;;5055163;27;93055;-72
2022/03/28 09:35:24;;;;;;;7.55;5.50;;;10.60;81.80;;;;;;5055168;27;92925;-72
2022/03/28 09:38:02;;;;;;;6.53;4.65;;;10.70;81.90;;;;;;5055352;27;92337;-72
2022/03/28 09:40:44;;;;;;;5.38;4.57;;;10.70;81.50;;;;;;5036928;27;92963;-72
2022/03/28 09:43:43;;;;;;;5.70;4.25;;;10.70;81.10;;;;;;5054851;27;96201;-72
2022/03/28 09:46:27;;;;;;;6.03;4.75;;;10.90;80.50;;;;;;5035080;27;91914;-72
2022/03/28 09:48:57;;;;;;;;;;;11.10;80.10;;;;;;5037830;27;92450;-72
2022/03/28 09:51:29;;;;;;;5.50;4.20;;;11.20;79.00;;;;;;5055981;27;92494;-72
2022/03/28 09:53:58;;;;;;;6.93;5.28;;;11.50;78.80;;;;;;5035290;27;99584;-72
2022/03/28 09:56:26;;;;;;;5.32;4.22;;;11.50;78.40;;;;;;5037724;27;98138;-72
2022/03/28 09:59:01;;;;;;;6.55;5.13;;;11.60;78.10;;;;;;5040246;27;92493;-72
2022/03/28 10:01:30;;;;;;;6.20;5.13;;;11.80;77.90;;;;;;5039864;27;92641;-72
2022/03/28 10:04:01;;;;;;;6.80;5.20;;;11.90;77.50;;;;;;5058072;27;92479;-72
2022/03/28 10:06:29;;;;;;;5.32;4.40;;;12.00;76.90;;;;;;5058107;27;92918;-72
2022/03/28 10:08:56;;;;;;;6.00;5.10;;;11.90;76.60;;;;;;5058190;27;92482;-72
2022/03/28 10:11:25;;;;;;;5.95;5.15;;;11.90;76.70;;;;;;5057913;27;102528;-72
2022/03/28 10:13:53;;;;;;;5.32;4.82;;;11.80;77.10;;;;;;5039551;27;95933;-72
2022/03/28 10:16:24;;;;;;;7.30;6.50;;;11.80;77.30;;;;;;5023350;27;95607;-72
2022/03/28 10:18:52;;;;;;;6.50;5.85;;;12.00;77.00;;;;;;5057106;27;94794;-72
2022/03/28 10:21:29;;;;;;;5.72;5.05;;;12.20;76.80;;;;;;5039210;27;92459;-72
2022/03/28 10:24:15;;;;;;;7.82;6.72;;;12.40;77.00;;;;;;5038790;27;95024;-72
2022/03/28 10:26:51;;;;;;;7.88;6.03;;;12.50;75.70;;;;;;5039286;27;94732;-72
2022/03/28 10:29:22;;;;;;;7.93;6.80;;;12.50;75.20;;;;;;5057998;27;92344;-72
2022/03/28 10:31:53;;;;;;;7.78;6.65;;;12.60;75.10;;;;;;5022594;27;92936;-72
2022/03/28 10:34:48;;;;;;;7.40;6.45;;;12.70;74.90;;;;;;5057680;27;93110;-72
2022/03/28 10:37:34;;;;;;;8.30;6.53;;;12.70;74.40;;;;;;5058141;27;92896;-72
2022/03/28 10:40:23;;;;;;;8.10;6.07;;;12.80;74.60;;;;;;5057928;27;92345;-72
2022/03/28 10:43:12;;;;;;;7.95;6.78;;;12.90;73.60;;;;;;5039828;27;92420;-72
2022/03/28 10:45:53;;;;;;;8.53;7.43;;;13.10;73.90;;;;;;5038993;27;94919;-72
2022/03/28 10:48:36;;;;;;;6.57;5.78;;;13.20;73.00;;;;;;5057445;27;95343;-72
2022/03/28 10:51:10;;;;;;;7.10;6.40;;;13.20;72.40;;;;;;5058047;27;92415;-73
2022/03/28 10:53:39;;;;;;;;;;;13.20;72.60;;;;;;5039271;27;92534;-73
2022/03/28 10:56:13;;;;;;;9.98;7.57;;;13.00;72.60;;;;;;5040501;27;92522;-73
2022/03/28 10:58:42;;;;;;;;;;;13.10;72.90;;;;;;5039012;27;95622;-72
2022/03/28 11:01:11;;;;;;;6.90;6.22;;;13.00;72.80;;;;;;5058828;27;92478;-73
2022/03/28 11:03:45;;;;;;;8.02;7.18;;;13.20;73.10;;;;;;5057563;27;91683;-72
2022/03/28 11:06:14;;;;;;;7.43;6.68;;;13.60;72.50;;;;;;5056781;27;93158;-72
2022/03/28 11:08:47;;;;;;;7.80;6.63;;;13.60;71.70;;;;;;5038476;27;95782;-73
2022/03/28 11:11:23;;;;;;;12.90;7.90;;;13.80;71.40;;;;;;5037638;27;94878;-73
2022/03/28 11:13:59;;;;;;;9.07;7.47;;;14.00;71.40;;;;;;5057452;27;92409;-72
2022/03/28 11:16:49;;;;;;;8.45;7.32;;;14.20;70.20;;;;;;5057077;27;93337;-73
2022/03/28 11:19:25;;;;;;;7.93;7.15;;;14.50;69.20;;;;;;5038611;27;95695;-72
2022/03/28 11:22:10;;;;;;;7.97;7.28;;;14.70;69.10;;;;;;5057266;27;92844;-72
2022/03/28 11:24:54;;;;;;;9.65;7.35;;;14.80;68.70;;;;;;5056928;27;92445;-70
2022/03/28 11:27:23;;;;;;;9.50;7.80;;;15.00;68.50;;;;;;5057269;27;92974;-70
2022/03/28 11:30:00;;;;;;;9.65;8.50;;;15.00;67.80;;;;;;5057050;27;93085;-71
2022/03/28 11:32:31;;;;;;;11.02;8.50;;;15.00;68.00;;;;;;5038327;27;92574;-73
2022/03/28 11:35:02;;;;;;;10.70;9.70;;;14.80;67.90;;;;;;5039180;27;92448;-70
2022/03/28 11:37:30;;;;;;;9.32;8.52;;;14.80;68.10;;;;;;5036710;27;98352;-71
2022/03/28 11:40:02;;;;;;;9.10;8.20;;;14.80;68.00;;;;;;5056435;27;95302;-70
2022/03/28 11:42:31;;;;;;;8.55;7.78;;;14.70;67.80;;;;;;5056715;27;92344;-70
2022/03/28 11:45:08;;;;;;;8.25;7.32;;;14.70;68.00;;;;;;5038267;27;92530;-70
2022/03/28 11:47:37;;;;;;;8.52;7.72;;;14.70;68.10;;;;;;5037746;27;98688;-70
2022/03/28 11:50:09;;;;;;;9.13;8.23;;;14.40;68.60;;;;;;5056676;27;93146;-70
2022/03/28 11:52:36;;;;;;;9.55;8.20;;;14.50;68.80;;;;;;5056690;27;92463;-71
2022/03/28 11:55:18;;;;;;;9.00;8.20;;;14.60;68.70;;;;;;5038405;27;91746;-73
2022/03/28 12:00:34;;;;;;;9.32;8.43;;;14.50;68.80;;;;;;5037517;27;97098;-72
2022/03/28 12:03:03;;;;;;;9.27;8.38;;;14.40;69.30;;;;;;5055283;27;94815;-72
2022/03/28 12:05:41;;;;;;;9.93;8.40;;;14.50;69.60;;;;;;5038005;27;92553;-72
2022/03/28 12:08:14;;;;;;;9.45;8.55;;;14.60;69.20;;;;;;5056518;27;93244;-72
2022/03/28 12:10:43;;;;;;;9.32;8.52;;;14.40;69.10;;;;;;5037932;27;93091;-73
2022/03/28 12:13:10;;;;;;;10.23;9.23;;;14.30;69.80;;;;;;5037788;27;92449;-72
2022/03/28 12:15:46;;;;;;;9.57;8.60;;;14.20;69.80;;;;;;5037311;27;101134;-73
2022/03/28 12:18:15;;;;;;;10.48;9.48;;;14.20;70.30;;;;;;5055347;27;93441;-72
2022/03/28 12:20:45;;;;;;;10.77;9.68;;;14.10;70.40;;;;;;5037671;27;95256;-72
2022/03/28 12:23:16;;;;;;;12.48;9.07;;;14.10;70.60;;;;;;5037517;27;92487;-72
2022/03/28 12:25:48;;;;;;;10.43;9.52;;;14.20;70.70;;;;;;5055758;27;92416;-72
2022/03/28 12:28:24;;;;;;;11.30;10.15;;;14.20;70.70;;;;;;5054846;27;95925;-72
2022/03/28 12:30:55;;;;;;;9.93;8.73;;;14.20;70.10;;;;;;5036801;27;98127;-72
2022/03/28 12:33:26;;;;;;;10.93;9.82;;;14.10;70.50;;;;;;5038134;27;93148;-73
2022/03/28 12:35:56;;;;;;;11.30;10.10;;;14.00;71.20;;;;;;5055768;27;92316;-72
2022/03/28 12:38:29;;;;;;;13.15;9.95;;;13.80;71.10;;;;;;5055245;27;93319;-72
2022/03/28 12:41:04;;;;;;;11.20;10.10;;;13.90;71.30;;;;;;5055778;27;92463;-72
2022/03/28 12:43:33;;;;;;;10.88;9.77;;;13.90;71.10;;;;;;5055691;27;92391;-72
2022/03/28 12:46:03;;;;;;;12.30;10.23;;;13.80;71.00;;;;;;5055944;27;95916;-72
2022/03/28 12:48:49;;;;;;;10.70;9.73;;;13.80;71.70;;;;;;5055239;27;93303;-72
2022/03/28 12:51:37;;;;;;;13.40;10.60;;;14.00;71.30;;;;;;5055811;27;92941;-74
2022/03/28 12:54:07;;;;;;;10.85;9.82;;;14.10;70.80;;;;;;5036251;27;94904;-72
2022/03/28 12:56:47;;;;;;;;;;;14.10;70.80;;;;;;5056040;27;92448;-71
2022/03/28 12:59:21;;;;;;;12.43;10.43;;;14.20;70.90;;;;;;5056901;27;93095;-71